OITR Airport Information

Runway Information
Runway 03 Length 10658 ft width 148 ft
Elevation 4343 ft Threshold 0 ft Heading 33
Runway 21 Length 10658 ft Width 148 ft
Elevation 4274 ft Threshold 0 ft Heading 213
Airport Frequencies
Type ATIS Name ATIS Frequency 127.25 MHZ
Type TWR Name TWR Frequency 118.25 MHZ
Airport Navaids
Type VOR-DME Name Uromiyeh Frequency 113500 KHZ
Type NDB Name Uromiyeh Frequency 370 KHZ
Airport Weather Information & NOTAM
ADDS - METARS form results

(0241 UTC 23 August 2019)
Data provider http://aviationweather.gov/metar/data/
 
METAR text: OITR 230200Z 28004KT CAVOK 16/M05 Q1012
Conditions at: OITR (ORUMIEH , IR) observed 0200 UTC 23 August 2019
Temperature: 16.0°C (61°F)
Dewpoint: -5.0°C (23°F) [RH = 23%]
Pressure (altimeter): 29.88 inches Hg (1012.0 mb)
Winds: from the W (280 degrees) at 5 MPH (4 knots; 2.1 m/s)
Visibility: 6 or more miles (10+ km)
Ceiling: ceiling and visibility are OK
Clouds: unknown
Weather: no significant weather observed at this time

METAR text: OITR 230156Z 28004KT CAVOK 16/M05 Q1012
Conditions at: OITR (ORUMIEH , IR) observed 0156 UTC 23 August 2019
Temperature: 16.0°C (61°F)
Dewpoint: -5.0°C (23°F) [RH = 23%]
Pressure (altimeter): 29.88 inches Hg (1012.0 mb)
Winds: from the W (280 degrees) at 5 MPH (4 knots; 2.1 m/s)
Visibility: 6 or more miles (10+ km)
Ceiling: ceiling and visibility are OK
Clouds: unknown
Weather: no significant weather observed at this time

Forecast for: OITR (ORUMIEH , IR)
Text: TAF OITR 222315Z 2300/2406 27008KT 8000 NSC
Forecast period: 0000 UTC 23 August 2019 to 0600 UTC 24 August 2019
Forecast type: FROM: standard forecast or significant change
Winds: from the W (270 degrees) at 9 MPH (8 knots; 4.1 m/s)
Visibility: 5 miles (8 km)
Ceiling: unknown
Clouds: missing
Weather: no significant weather forecast for this period